createdAt,value
2022-11-10T00:01:11.651Z,4.13
2022-11-10T00:04:04.799Z,3.97
2022-11-10T00:06:51.523Z,3.63
2022-11-10T00:09:38.245Z,6.15
2022-11-10T00:12:24.982Z,4.85
2022-11-10T00:15:29.867Z,5.97
2022-11-10T00:18:16.178Z,3.47
2022-11-10T00:21:06.967Z,3.75
2022-11-10T00:23:54.357Z,5.00
2022-11-10T00:26:40.915Z,4.82
2022-11-10T00:29:27.542Z,3.53
2022-11-10T00:32:14.501Z,3.70
2022-11-10T00:37:50.933Z,4.32
2022-11-10T00:40:36.814Z,4.78
2022-11-10T00:43:26.513Z,3.38
2022-11-10T00:46:13.809Z,4.45
2022-11-10T00:49:00.239Z,6.03
2022-11-10T00:51:46.150Z,5.38
2022-11-10T00:54:32.222Z,4.28
2022-11-10T00:57:18.626Z,4.53
2022-11-10T01:00:08.457Z,5.63
2022-11-10T01:03:02.704Z,5.70
2022-11-10T01:05:49.622Z,4.13
2022-11-10T01:08:40.179Z,6.60
2022-11-10T01:11:28.566Z,5.50
2022-11-10T01:14:14.964Z,8.13
2022-11-10T01:17:01.017Z,5.57
2022-11-10T01:19:46.950Z,4.88
2022-11-10T01:22:33.220Z,5.93
2022-11-10T01:25:20.684Z,6.15
2022-11-10T01:28:06.637Z,5.30
2022-11-10T01:31:05.788Z,3.55
2022-11-10T01:33:53.481Z,5.03
2022-11-10T01:36:40.754Z,4.18
2022-11-10T01:39:27.833Z,5.32
2022-11-10T01:42:15.608Z,4.25
2022-11-10T01:45:26.554Z,3.75
2022-11-10T01:48:36.596Z,7.18
2022-11-10T01:51:49.728Z,2.90
2022-11-10T01:54:42.941Z,3.35
2022-11-10T01:57:30.169Z,4.80
2022-11-10T02:00:18.645Z,3.30
2022-11-10T02:03:14.507Z,8.30
2022-11-10T02:06:01.605Z,3.95
2022-11-10T02:08:49.154Z,2.92
2022-11-10T02:11:37.885Z,3.33
2022-11-10T02:14:25.560Z,2.83
2022-11-10T02:17:12.760Z,3.67
2022-11-10T02:20:04.584Z,2.83
2022-11-10T02:22:51.110Z,3.80
2022-11-10T02:25:39.055Z,6.75
2022-11-10T02:28:26.016Z,4.20
2022-11-10T02:31:13.057Z,4.53
2022-11-10T02:33:59.092Z,6.88
2022-11-10T02:36:45.477Z,6.97
2022-11-10T02:39:31.580Z,2.95
2022-11-10T02:42:18.632Z,4.53
2022-11-10T02:45:05.628Z,2.55
2022-11-10T02:47:52.105Z,4.65
2022-11-10T02:50:40.160Z,2.30
2022-11-10T02:53:26.405Z,8.32
2022-11-10T02:56:13.685Z,2.88
2022-11-10T02:59:00.041Z,5.28
2022-11-10T03:01:46.258Z,3.63
2022-11-10T03:04:32.544Z,3.40
2022-11-10T03:07:18.493Z,2.47
2022-11-10T03:10:08.912Z,3.28
2022-11-10T03:12:58.577Z,3.03
2022-11-10T03:15:48.469Z,3.80
2022-11-10T03:18:34.623Z,3.33
2022-11-10T03:21:21.765Z,3.22
2022-11-10T03:24:07.689Z,2.25
2022-11-10T03:26:53.784Z,3.90
2022-11-10T03:29:41.336Z,1.95
2022-11-10T03:32:28.378Z,3.63
2022-11-10T03:35:16.685Z,35.80
2022-11-10T03:38:04.009Z,32.83
2022-11-10T03:41:17.676Z,24.98
2022-11-10T03:43:58.198Z,3.20
2022-11-10T03:46:51.389Z,3.83
2022-11-10T03:49:41.476Z,2.45
2022-11-10T03:52:28.001Z,2.30
2022-11-10T03:55:18.542Z,3.08
2022-11-10T03:58:05.046Z,3.42
2022-11-10T04:00:54.523Z,2.47
2022-11-10T04:03:41.542Z,2.80
2022-11-10T04:06:46.405Z,4.68
2022-11-10T04:09:32.543Z,3.08
2022-11-10T04:12:37.208Z,4.78
2022-11-10T04:15:42.325Z,2.63
2022-11-10T04:18:29.832Z,2.85
2022-11-10T04:21:16.524Z,3.78
2022-11-10T04:24:02.610Z,3.35
2022-11-10T04:26:49.552Z,2.70
2022-11-10T04:29:35.995Z,3.05
2022-11-10T04:32:21.955Z,2.78
2022-11-10T04:35:10.273Z,2.80
2022-11-10T04:37:56.684Z,3.72
2022-11-10T04:40:42.609Z,3.88
2022-11-10T04:43:29.504Z,2.50
2022-11-10T04:46:33.623Z,3.47
2022-11-10T04:49:20.576Z,3.38
2022-11-10T04:52:07.038Z,3.33
2022-11-10T04:54:53.626Z,3.60
2022-11-10T04:57:39.688Z,2.85
2022-11-10T05:00:26.569Z,5.35
2022-11-10T05:03:13.332Z,5.78
2022-11-10T05:06:00.053Z,8.55
2022-11-10T05:08:47.492Z,6.43
2022-11-10T05:11:34.413Z,7.10
2022-11-10T05:14:20.285Z,6.28
2022-11-10T05:17:06.432Z,8.93
2022-11-10T05:19:54.776Z,7.22
2022-11-10T05:22:44.107Z,21.92
2022-11-10T05:25:34.119Z,5.95
2022-11-10T05:28:20.114Z,6.50
2022-11-10T05:31:07.045Z,8.90
2022-11-10T05:33:53.176Z,7.03
2022-11-10T05:36:39.085Z,7.55
2022-11-10T05:39:25.338Z,7.78
2022-11-10T05:42:11.996Z,4.88
2022-11-10T05:44:59.517Z,5.15
2022-11-10T05:47:45.842Z,6.45
2022-11-10T05:50:32.149Z,5.00
2022-11-10T05:53:19.352Z,5.95
2022-11-10T05:56:06.584Z,5.20
2022-11-10T05:58:52.809Z,14.02
2022-11-10T06:01:40.401Z,6.57
2022-11-10T06:04:26.758Z,5.72
2022-11-10T06:07:13.477Z,7.10
2022-11-10T06:10:02.029Z,9.68
2022-11-10T06:12:49.601Z,7.93
2022-11-10T06:15:36.179Z,10.48
2022-11-10T06:18:22.098Z,6.82
2022-11-10T06:21:09.595Z,4.35
2022-11-10T06:23:55.687Z,11.07
2022-11-10T06:26:42.764Z,10.48
2022-11-10T06:29:29.269Z,5.18
2022-11-10T06:32:15.793Z,6.47
2022-11-10T06:35:01.849Z,5.13
2022-11-10T06:38:06.897Z,6.65
2022-11-10T06:40:53.102Z,5.93
2022-11-10T06:43:39.632Z,5.80
2022-11-10T06:46:26.962Z,3.90
2022-11-10T06:49:13.729Z,5.53
2022-11-10T06:51:59.840Z,6.82
2022-11-10T06:54:46.563Z,3.33
2022-11-10T06:57:40.113Z,5.57
2022-11-10T07:00:28.075Z,3.33
2022-11-10T07:03:16.253Z,3.97
2022-11-10T07:06:04.590Z,4.78
2022-11-10T07:08:50.896Z,2.97
2022-11-10T07:11:38.027Z,3.75
2022-11-10T07:14:24.391Z,6.10
2022-11-10T07:17:10.406Z,4.90
2022-11-10T07:19:58.566Z,9.90
2022-11-10T07:22:44.805Z,9.43
2022-11-10T07:25:35.512Z,8.25
2022-11-10T07:28:24.621Z,10.77
2022-11-10T07:31:14.865Z,7.75
2022-11-10T07:34:01.259Z,6.90
2022-11-10T07:36:48.527Z,5.50
2022-11-10T07:39:34.734Z,7.05
2022-11-10T07:42:21.271Z,4.13
2022-11-10T07:48:05.625Z,4.38
2022-11-10T07:50:52.569Z,3.05
2022-11-10T07:53:41.386Z,4.88
2022-11-10T07:56:29.165Z,3.70
2022-11-10T07:59:17.556Z,3.72
2022-11-10T08:04:49.313Z,3.10
2022-11-10T08:07:37.381Z,3.28
2022-11-10T08:10:24.318Z,3.30
2022-11-10T08:13:13.281Z,2.80
2022-11-10T08:16:01.318Z,3.30
2022-11-10T08:18:47.326Z,2.80
2022-11-10T08:21:38.409Z,3.90
2022-11-10T08:24:25.650Z,5.10
2022-11-10T08:27:11.590Z,5.60
2022-11-10T08:29:58.001Z,5.93
2022-11-10T08:35:42.044Z,3.10
2022-11-10T08:38:28.545Z,6.35
2022-11-10T08:41:14.290Z,3.13
2022-11-10T08:44:00.948Z,6.63
2022-11-10T08:46:47.614Z,11.70
2022-11-10T08:49:34.080Z,15.18
2022-11-10T08:52:20.636Z,15.63
2022-11-10T08:55:07.364Z,19.70
2022-11-10T08:58:03.620Z,14.90
2022-11-10T09:00:51.398Z,20.27
2022-11-10T09:03:38.254Z,26.70
2022-11-10T09:06:24.624Z,29.70
2022-11-10T09:09:10.997Z,17.50
2022-11-10T09:11:57.230Z,34.17
2022-11-10T09:14:43.410Z,32.80
2022-11-10T09:17:29.541Z,27.90
2022-11-10T09:20:22.670Z,30.90
2022-11-10T09:23:18.945Z,31.42
2022-11-10T09:26:08.241Z,29.35
2022-11-10T09:28:55.099Z,32.25
2022-11-10T09:31:45.160Z,27.17
2022-11-10T09:34:33.496Z,27.67
2022-11-10T09:37:19.392Z,20.05
2022-11-10T09:40:09.235Z,24.17
2022-11-10T09:43:02.596Z,19.30
2022-11-10T09:45:54.115Z,20.33
2022-11-10T09:48:50.906Z,21.92
2022-11-10T09:54:45.414Z,19.48
2022-11-10T09:57:32.528Z,19.77
2022-11-10T10:00:19.287Z,10.57
2022-11-10T10:03:08.062Z,13.38
2022-11-10T10:06:03.539Z,14.15
2022-11-10T10:09:21.778Z,11.27
2022-11-10T10:12:24.728Z,10.93
2022-11-10T10:15:30.010Z,12.07
2022-11-10T10:18:30.508Z,9.63
2022-11-10T10:21:48.519Z,10.25
2022-11-10T10:24:34.855Z,8.80
2022-11-10T10:27:26.085Z,7.07
2022-11-10T10:30:26.423Z,9.52
2022-11-10T10:33:19.622Z,7.70
2022-11-10T10:36:14.499Z,7.70
2022-11-10T10:39:21.508Z,10.02
2022-11-10T10:42:28.523Z,8.13
2022-11-10T10:45:24.175Z,8.50
2022-11-10T10:48:30.672Z,8.77
2022-11-10T10:54:37.242Z,6.65
2022-11-10T10:57:29.180Z,6.88
2022-11-10T11:00:17.960Z,8.13
2022-11-10T11:03:31.545Z,4.60
2022-11-10T11:06:19.393Z,2.60
2022-11-10T11:09:17.898Z,2.67
2022-11-10T11:12:13.248Z,3.35
2022-11-10T11:15:28.427Z,2.92
2022-11-10T11:18:20.726Z,2.83
2022-11-10T11:21:27.359Z,4.20
2022-11-10T11:27:24.538Z,3.47
2022-11-10T11:30:17.625Z,4.50
2022-11-10T11:33:37.614Z,3.40
2022-11-10T11:36:38.481Z,3.20
2022-11-10T11:40:05.673Z,2.35
2022-11-10T11:43:34.701Z,4.72
2022-11-10T11:46:51.580Z,3.63
2022-11-10T11:50:19.289Z,3.13
2022-11-10T11:53:41.178Z,3.03
2022-11-10T11:56:35.168Z,3.42
2022-11-10T11:59:51.435Z,3.28
2022-11-10T12:03:13.129Z,3.42
2022-11-10T12:06:20.160Z,3.35
2022-11-10T12:12:36.835Z,3.78
2022-11-10T12:15:35.727Z,2.90
2022-11-10T12:18:37.799Z,3.30
2022-11-10T12:21:59.401Z,5.50
2022-11-10T12:25:06.069Z,3.70
2022-11-10T12:28:18.510Z,6.50
2022-11-10T12:31:17.551Z,5.00
2022-11-10T12:34:23.520Z,4.10
2022-11-10T12:37:28.725Z,3.42
2022-11-10T12:40:21.691Z,3.83
2022-11-10T12:43:29.571Z,3.88
2022-11-10T12:46:16.332Z,4.18
2022-11-10T12:49:19.345Z,7.63
2022-11-10T12:52:32.109Z,4.40
2022-11-10T12:55:26.638Z,5.47
2022-11-10T12:58:15.081Z,5.30
2022-11-10T13:01:07.637Z,4.07
2022-11-10T13:04:01.222Z,4.53
2022-11-10T13:06:57.406Z,3.88
2022-11-10T13:09:44.944Z,4.10
2022-11-10T13:12:37.922Z,3.65
2022-11-10T13:15:40.315Z,3.30
2022-11-10T13:18:32.546Z,3.55
2022-11-10T13:21:52.856Z,3.10
2022-11-10T13:24:46.421Z,4.43
2022-11-10T13:27:35.844Z,3.00
2022-11-10T13:30:40.449Z,3.10
2022-11-10T13:33:26.552Z,4.47
2022-11-10T13:36:44.617Z,3.75
2022-11-10T13:39:33.517Z,5.97
2022-11-10T13:42:25.003Z,3.92
2022-11-10T13:45:41.541Z,3.95
2022-11-10T13:48:49.905Z,9.68
2022-11-10T13:52:09.650Z,4.20
2022-11-10T13:55:26.675Z,6.03
2022-11-10T13:58:28.351Z,6.05
2022-11-10T14:01:18.840Z,5.50
2022-11-10T14:04:05.377Z,6.47
2022-11-10T14:06:57.618Z,6.82
2022-11-10T14:09:52.685Z,8.63
2022-11-10T14:12:53.487Z,9.80
2022-11-10T14:15:45.076Z,10.18
2022-11-10T14:18:57.305Z,15.07
2022-11-10T14:21:58.386Z,15.10
2022-11-10T14:25:04.287Z,13.82
2022-11-10T14:27:56.822Z,14.57
2022-11-10T14:30:52.238Z,19.10
2022-11-10T14:33:40.551Z,17.08
2022-11-10T14:36:26.929Z,11.32
2022-11-10T14:39:16.999Z,10.45
2022-11-10T14:42:05.750Z,7.38
2022-11-10T14:45:16.100Z,10.15
2022-11-10T14:48:03.319Z,6.28
2022-11-10T14:50:52.465Z,7.27
2022-11-10T14:53:49.485Z,6.07
2022-11-10T14:56:37.503Z,5.57
2022-11-10T14:59:28.578Z,10.73
2022-11-10T15:02:18.803Z,5.38
2022-11-10T15:05:06.610Z,5.75
2022-11-10T15:07:58.093Z,7.53
2022-11-10T15:10:48.537Z,9.70
2022-11-10T15:13:40.070Z,14.00
2022-11-10T15:16:32.047Z,50.33
2022-11-10T15:19:34.401Z,21.58
2022-11-10T15:22:34.519Z,29.17
2022-11-10T15:25:26.109Z,31.00
2022-11-10T15:28:33.172Z,68.80
2022-11-10T15:31:36.686Z,73.18
2022-11-10T15:34:48.281Z,25.50
2022-11-10T15:37:38.335Z,15.15
2022-11-10T15:40:49.853Z,14.52
2022-11-10T15:43:37.347Z,12.82
2022-11-10T15:46:27.278Z,9.18
2022-11-10T15:49:25.874Z,9.07
2022-11-10T15:52:21.352Z,10.05
2022-11-10T15:55:21.481Z,12.05
2022-11-10T15:58:19.631Z,13.38
2022-11-10T16:01:12.466Z,14.90
2022-11-10T16:04:01.572Z,13.40
2022-11-10T16:06:48.540Z,59.47
2022-11-10T16:09:36.327Z,52.53
2022-11-10T16:12:23.628Z,32.33
2022-11-10T16:15:20.440Z,18.50
2022-11-10T16:18:34.505Z,23.38
2022-11-10T16:21:26.268Z,14.27
2022-11-10T16:24:16.070Z,33.63
2022-11-10T16:27:07.286Z,46.83
2022-11-10T16:29:53.683Z,35.20
2022-11-10T16:32:41.416Z,28.02
2022-11-10T16:35:28.205Z,28.88
2022-11-10T16:38:27.585Z,35.83
2022-11-10T16:41:17.048Z,131.73
2022-11-10T16:44:05.483Z,24.52
2022-11-10T16:49:49.127Z,17.63
2022-11-10T16:52:35.990Z,17.50
2022-11-10T16:55:22.522Z,18.73
2022-11-10T16:58:08.478Z,45.65
2022-11-10T17:01:00.279Z,63.17
2022-11-10T17:03:54.003Z,39.83
2022-11-10T17:06:40.696Z,36.22
2022-11-10T17:09:27.543Z,38.97
2022-11-10T17:12:15.859Z,37.13
2022-11-10T17:15:02.142Z,31.70
2022-11-10T17:17:55.657Z,36.83
2022-11-10T17:20:47.187Z,30.00
2022-11-10T17:23:36.631Z,24.63
2022-11-10T17:26:24.242Z,22.98
2022-11-10T17:29:18.393Z,31.17
2022-11-10T17:32:05.030Z,20.80
2022-11-10T17:34:51.328Z,18.85
2022-11-10T17:37:39.493Z,19.25
2022-11-10T17:43:15.829Z,19.77
2022-11-10T17:46:02.530Z,19.17
2022-11-10T17:48:49.848Z,19.33
2022-11-10T17:51:37.472Z,20.85
2022-11-10T17:54:25.712Z,20.05
2022-11-10T17:57:15.525Z,17.73
2022-11-10T18:00:02.840Z,19.02
2022-11-10T18:02:55.567Z,20.80
2022-11-10T18:05:42.815Z,18.67
2022-11-10T18:08:32.276Z,20.13
2022-11-10T18:11:18.796Z,17.13
2022-11-10T18:14:11.226Z,20.38
2022-11-10T18:16:57.094Z,19.73
2022-11-10T18:19:44.554Z,21.98
2022-11-10T18:22:30.478Z,19.77
2022-11-10T18:25:23.431Z,18.30
2022-11-10T18:28:14.385Z,19.77
2022-11-10T18:31:14.567Z,20.00
2022-11-10T18:34:00.391Z,16.48
2022-11-10T18:36:47.018Z,21.48
2022-11-10T18:39:33.462Z,22.92
2022-11-10T18:42:19.887Z,24.20
2022-11-10T18:45:06.725Z,26.08
2022-11-10T18:47:53.399Z,22.70
2022-11-10T18:50:39.550Z,23.83
2022-11-10T18:53:26.606Z,25.60
2022-11-10T18:56:14.298Z,18.48
2022-11-10T18:59:01.301Z,18.40
2022-11-10T19:01:47.158Z,19.45
2022-11-10T19:04:35.239Z,20.80
2022-11-10T19:07:21.017Z,20.85
2022-11-10T19:10:07.407Z,19.75
2022-11-10T19:12:53.215Z,19.75
2022-11-10T19:15:43.371Z,19.30
2022-11-10T19:18:31.652Z,23.05
2022-11-10T19:21:22.570Z,21.25
2022-11-10T19:24:11.822Z,20.05
2022-11-10T19:26:57.672Z,22.52
2022-11-10T19:29:43.788Z,19.27
2022-11-10T19:32:30.302Z,24.30
2022-11-10T19:35:17.924Z,21.15
2022-11-10T19:38:04.626Z,19.50
2022-11-10T19:40:50.973Z,27.58
2022-11-10T19:43:38.563Z,22.95
2022-11-10T19:46:29.450Z,26.10
2022-11-10T19:49:15.896Z,26.05
2022-11-10T19:52:01.979Z,25.38
2022-11-10T19:54:48.512Z,25.88
2022-11-10T19:57:36.373Z,33.55
2022-11-10T20:00:23.333Z,37.47
2022-11-10T20:03:11.390Z,35.13
2022-11-10T20:06:04.319Z,33.53
2022-11-10T20:08:50.963Z,30.50
2022-11-10T20:11:37.280Z,28.13
2022-11-10T20:14:23.335Z,35.92
2022-11-10T20:17:09.386Z,36.17
2022-11-10T20:19:55.451Z,34.17
2022-11-10T20:22:42.801Z,30.02
2022-11-10T20:25:29.567Z,36.80
2022-11-10T20:28:16.209Z,36.28
2022-11-10T20:31:05.465Z,40.83
2022-11-10T20:33:56.411Z,55.63
2022-11-10T20:36:43.081Z,32.97
2022-11-10T20:39:30.303Z,30.33
2022-11-10T20:42:17.412Z,48.15
2022-11-10T20:45:05.788Z,32.30
2022-11-10T20:47:52.309Z,30.43
2022-11-10T20:50:44.250Z,30.02
2022-11-10T20:53:32.399Z,28.30
2022-11-10T20:56:18.543Z,32.03
2022-11-10T20:59:04.930Z,35.47
2022-11-10T21:01:53.156Z,27.92
2022-11-10T21:04:43.004Z,32.25
2022-11-10T21:07:31.721Z,36.72
2022-11-10T21:10:20.553Z,34.00
2022-11-10T21:13:06.875Z,26.30
2022-11-10T21:15:57.724Z,28.17
2022-11-10T21:18:44.043Z,24.45
2022-11-10T21:21:36.329Z,30.55
2022-11-10T21:24:25.612Z,24.55
2022-11-10T21:27:12.249Z,25.83
2022-11-10T21:29:58.688Z,28.33
2022-11-10T21:32:45.004Z,26.05
2022-11-10T21:35:36.830Z,22.52
2022-11-10T21:38:24.244Z,24.92
2022-11-10T21:41:11.204Z,24.65
2022-11-10T21:43:57.845Z,28.77
2022-11-10T21:46:45.345Z,23.92
2022-11-10T21:49:31.416Z,32.00
2022-11-10T21:52:18.050Z,26.08
2022-11-10T21:55:05.362Z,24.92
2022-11-10T21:57:58.299Z,25.13
2022-11-10T22:00:44.399Z,23.13
2022-11-10T22:03:31.737Z,24.92
2022-11-10T22:06:21.215Z,32.03
2022-11-10T22:09:07.646Z,21.73
2022-11-10T22:12:12.085Z,25.02
2022-11-10T22:15:17.102Z,25.77
2022-11-10T22:18:22.363Z,24.42
2022-11-10T22:21:09.074Z,30.65
2022-11-10T22:24:13.391Z,31.17
2022-11-10T22:27:05.165Z,19.95
2022-11-10T22:29:53.726Z,24.17
2022-11-10T22:32:41.099Z,25.52
2022-11-10T22:35:45.177Z,25.45
2022-11-10T22:38:37.350Z,26.08
2022-11-10T22:41:41.992Z,25.27
2022-11-10T22:44:30.313Z,21.40
2022-11-10T22:47:17.716Z,24.35
2022-11-10T22:50:04.546Z,26.17
2022-11-10T22:52:51.154Z,22.93
2022-11-10T22:55:37.222Z,22.30
2022-11-10T22:58:24.199Z,25.38
2022-11-10T23:01:12.440Z,22.52
2022-11-10T23:04:03.321Z,27.92
2022-11-10T23:06:50.362Z,25.25
2022-11-10T23:09:37.801Z,20.75
2022-11-10T23:12:23.868Z,20.85
2022-11-10T23:15:11.393Z,21.92
2022-11-10T23:18:02.366Z,27.38
2022-11-10T23:21:08.153Z,20.98
2022-11-10T23:23:55.280Z,21.38
2022-11-10T23:26:42.607Z,18.70
2022-11-10T23:29:32.337Z,24.00
2022-11-10T23:32:23.471Z,21.60
2022-11-10T23:35:10.033Z,22.08
2022-11-10T23:37:59.216Z,22.60
2022-11-10T23:40:45.671Z,18.33
2022-11-10T23:43:35.177Z,21.83
2022-11-10T23:46:23.305Z,20.00
2022-11-10T23:51:57.452Z,20.20
2022-11-10T23:54:44.138Z,22.48
2022-11-10T23:57:30.461Z,19.60
